createdAt,value
2018-03-24T00:00:17.967Z,87.10
2018-03-24T00:02:46.896Z,89.90
2018-03-24T00:05:16.086Z,90.67
2018-03-24T00:07:45.087Z,86.87
2018-03-24T00:10:14.290Z,91.93
2018-03-24T00:12:43.374Z,86.97
2018-03-24T00:15:12.689Z,90.07
2018-03-24T00:17:41.847Z,92.90
2018-03-24T00:20:11.146Z,92.43
2018-03-24T00:22:41.770Z,90.23
2018-03-24T00:25:11.043Z,96.07
2018-03-24T00:27:39.979Z,99.33
2018-03-24T00:30:09.999Z,102.37
2018-03-24T00:32:39.707Z,104.23
2018-03-24T00:35:08.907Z,106.80
2018-03-24T00:37:37.931Z,107.53
2018-03-24T00:40:07.211Z,111.83
2018-03-24T00:42:36.286Z,105.60
2018-03-24T00:45:07.147Z,108.57
2018-03-24T00:47:36.426Z,108.73
2018-03-24T00:50:05.803Z,111.90
2018-03-24T00:52:35.589Z,109.80
2018-03-24T00:55:04.936Z,109.73
2018-03-24T00:57:35.283Z,111.10
2018-03-24T01:00:04.895Z,111.13
2018-03-24T01:02:33.996Z,113.37
2018-03-24T01:05:03.703Z,109.90
2018-03-24T01:07:34.163Z,108.80
2018-03-24T01:10:03.232Z,112.90
2018-03-24T01:12:32.354Z,117.87
2018-03-24T01:15:01.528Z,117.53
2018-03-24T01:17:30.647Z,113.27
2018-03-24T01:20:00.537Z,116.10
2018-03-24T01:22:29.558Z,110.53
2018-03-24T01:24:58.730Z,112.67
2018-03-24T01:27:27.652Z,110.90
2018-03-24T01:29:56.951Z,114.73
2018-03-24T01:32:26.122Z,113.23
2018-03-24T01:34:55.350Z,110.60
2018-03-24T01:37:24.508Z,111.07
2018-03-24T01:39:53.474Z,117.80
2018-03-24T01:42:22.515Z,116.93
2018-03-24T01:44:52.267Z,114.40
2018-03-24T01:47:21.318Z,115.13
2018-03-24T01:49:50.624Z,115.37
2018-03-24T01:52:19.614Z,117.97
2018-03-24T01:54:49.023Z,114.10
2018-03-24T01:57:18.044Z,117.77
2018-03-24T01:59:47.224Z,116.40
2018-03-24T02:02:16.417Z,121.97
2018-03-24T02:04:45.614Z,123.30
2018-03-24T02:07:14.711Z,121.70
2018-03-24T02:09:44.527Z,123.10
2018-03-24T02:12:14.335Z,125.23
2018-03-24T02:14:43.574Z,127.77
2018-03-24T02:17:12.731Z,124.27
2018-03-24T02:19:42.070Z,123.90
2018-03-24T02:22:11.295Z,124.67
2018-03-24T02:24:46.259Z,122.27
2018-03-24T02:27:16.115Z,127.70
2018-03-24T02:29:45.283Z,122.33
2018-03-24T02:32:14.283Z,123.70
2018-03-24T02:34:44.387Z,121.10
2018-03-24T02:37:14.655Z,130.43
2018-03-24T02:39:43.851Z,129.67
2018-03-24T02:42:13.631Z,128.13
2018-03-24T02:44:42.736Z,127.47
2018-03-24T02:47:11.628Z,130.40
2018-03-24T02:49:41.272Z,132.10
2018-03-24T02:52:10.163Z,132.07
2018-03-24T02:54:40.247Z,131.60
2018-03-24T02:57:10.058Z,129.00
2018-03-24T02:59:39.941Z,126.50
2018-03-24T03:02:09.143Z,132.27
2018-03-24T03:04:38.568Z,131.50
2018-03-24T03:07:07.684Z,130.23
2018-03-24T03:09:37.078Z,130.90
2018-03-24T03:12:06.110Z,127.37
2018-03-24T03:14:35.439Z,128.37
2018-03-24T03:17:04.406Z,128.90
2018-03-24T03:19:33.264Z,127.50
2018-03-24T03:22:02.655Z,127.00
2018-03-24T03:24:31.771Z,126.67
2018-03-24T03:27:00.863Z,129.40
2018-03-24T03:29:30.883Z,128.03
2018-03-24T03:32:06.548Z,127.33
2018-03-24T03:34:36.347Z,127.70
2018-03-24T03:37:05.342Z,126.90
2018-03-24T03:39:34.759Z,130.93
2018-03-24T03:42:03.675Z,120.70
2018-03-24T03:44:32.942Z,122.47
2018-03-24T03:47:02.275Z,121.10
2018-03-24T03:49:31.542Z,119.80
2018-03-24T03:52:00.642Z,125.90
2018-03-24T03:54:29.635Z,118.17
2018-03-24T03:56:58.921Z,110.40
2018-03-24T03:59:28.955Z,103.00
2018-03-24T04:01:58.046Z,103.00
2018-03-24T04:04:28.148Z,99.60
2018-03-24T04:06:57.067Z,92.80
2018-03-24T04:09:25.942Z,91.00
2018-03-24T04:11:55.056Z,87.10
2018-03-24T04:14:24.359Z,85.17
2018-03-24T04:16:53.999Z,83.43
2018-03-24T04:19:23.213Z,79.67
2018-03-24T04:21:52.963Z,73.97
2018-03-24T04:24:23.165Z,71.90
2018-03-24T04:26:53.295Z,72.70
2018-03-24T04:29:23.135Z,66.73
2018-03-24T04:31:52.468Z,66.80
2018-03-24T04:34:21.767Z,53.83
2018-03-24T04:36:50.821Z,51.90
2018-03-24T04:39:20.175Z,44.67
2018-03-24T04:41:49.266Z,43.93
2018-03-24T04:44:18.535Z,41.97
2018-03-24T04:46:48.296Z,37.00
2018-03-24T04:49:17.383Z,30.40
2018-03-24T04:51:47.246Z,29.60
2018-03-24T04:54:16.462Z,29.90
2018-03-24T04:56:45.483Z,28.53
2018-03-24T04:59:14.727Z,30.77
2018-03-24T05:01:43.867Z,32.60
2018-03-24T05:04:13.151Z,31.90
2018-03-24T05:06:42.515Z,31.90
2018-03-24T05:09:13.395Z,34.20
2018-03-24T05:11:42.386Z,33.93
2018-03-24T05:14:12.104Z,33.00
2018-03-24T05:16:41.303Z,32.73
2018-03-24T05:19:10.707Z,28.00
2018-03-24T05:21:39.787Z,26.53
2018-03-24T05:24:09.003Z,27.00
2018-03-24T05:26:38.031Z,29.50
2018-03-24T05:29:07.298Z,27.00
2018-03-24T05:31:36.392Z,28.43
2018-03-24T05:34:05.803Z,30.03
2018-03-24T05:36:34.999Z,27.50
2018-03-24T05:39:04.642Z,29.20
2018-03-24T05:41:33.794Z,30.07
2018-03-24T05:44:03.171Z,26.47
2018-03-24T05:46:33.190Z,22.90
2018-03-24T05:49:03.548Z,23.33
2018-03-24T05:51:32.610Z,20.87
2018-03-24T05:54:01.546Z,20.60
2018-03-24T05:56:30.639Z,20.40
2018-03-24T05:59:00.464Z,19.67
2018-03-24T06:01:37.050Z,17.60
2018-03-24T06:04:06.671Z,18.00
2018-03-24T06:06:35.830Z,16.73
2018-03-24T06:09:05.684Z,16.03
2018-03-24T06:11:34.747Z,16.90
2018-03-24T06:14:04.211Z,17.90
2018-03-24T06:16:34.095Z,15.17
2018-03-24T06:19:03.371Z,14.73
2018-03-24T06:21:32.495Z,14.10
2018-03-24T06:24:01.659Z,13.10
2018-03-24T06:26:30.553Z,12.20
2018-03-24T06:29:00.779Z,12.10
2018-03-24T06:31:33.570Z,13.10
2018-03-24T06:34:02.723Z,11.57
2018-03-24T06:36:32.661Z,11.63
2018-03-24T06:39:01.984Z,11.60
2018-03-24T06:41:31.183Z,9.77
2018-03-24T06:44:00.392Z,11.40
2018-03-24T06:46:29.502Z,10.30
2018-03-24T06:48:58.571Z,9.00
2018-03-24T06:51:27.630Z,10.80
2018-03-24T06:53:56.449Z,11.33
2018-03-24T06:56:25.455Z,10.57
2018-03-24T06:58:55.163Z,9.70
2018-03-24T07:01:24.095Z,10.87
2018-03-24T07:03:53.055Z,9.90
2018-03-24T07:06:22.084Z,9.43
2018-03-24T07:08:51.376Z,9.63
2018-03-24T07:11:20.676Z,10.10
2018-03-24T07:13:50.075Z,11.03
2018-03-24T07:16:19.867Z,9.90
2018-03-24T07:18:49.095Z,10.17
2018-03-24T07:21:18.275Z,9.50
2018-03-24T07:23:46.938Z,11.80
2018-03-24T07:26:15.629Z,11.47
2018-03-24T07:28:44.359Z,10.27
2018-03-24T07:31:12.796Z,11.07
2018-03-24T07:33:41.482Z,11.10
2018-03-24T07:36:10.170Z,10.20
2018-03-24T07:38:38.857Z,10.40
2018-03-24T07:41:07.443Z,9.10
2018-03-24T07:43:36.191Z,9.40
2018-03-24T07:46:04.817Z,8.70
2018-03-24T07:48:33.505Z,9.77
2018-03-24T07:51:02.191Z,8.23
2018-03-24T07:53:30.777Z,8.43
2018-03-24T07:55:59.302Z,7.87
2018-03-24T07:58:28.151Z,8.70
2018-03-24T08:00:56.736Z,8.03
2018-03-24T08:03:25.423Z,8.60
2018-03-24T08:05:54.726Z,6.77
2018-03-24T08:08:23.412Z,7.53
2018-03-24T08:10:52.715Z,7.60
2018-03-24T08:13:21.504Z,7.87
2018-03-24T08:15:50.190Z,8.93
2018-03-24T08:18:18.879Z,7.87
2018-03-24T08:20:47.463Z,8.33
2018-03-24T08:23:16.253Z,7.60
2018-03-24T08:25:44.838Z,7.30
2018-03-24T08:28:13.525Z,6.93
2018-03-24T08:30:42.213Z,8.20
2018-03-24T08:33:10.842Z,6.90
2018-03-24T08:35:39.350Z,6.60
2018-03-24T08:38:07.967Z,7.20
2018-03-24T08:40:36.552Z,6.83
2018-03-24T08:43:05.240Z,6.37
2018-03-24T08:45:33.928Z,5.87
2018-03-24T08:48:02.560Z,5.77
2018-03-24T08:50:30.995Z,6.60
2018-03-24T08:53:00.438Z,6.10
2018-03-24T08:55:29.012Z,6.00
2018-03-24T08:57:57.876Z,5.93
2018-03-24T09:00:26.563Z,6.80
2018-03-24T09:02:55.255Z,7.27
2018-03-24T09:05:23.937Z,5.67
2018-03-24T09:07:52.625Z,6.00
2018-03-24T09:10:21.209Z,6.30
2018-03-24T09:12:50.716Z,6.80
2018-03-24T09:15:19.506Z,6.73
2018-03-24T09:17:48.193Z,7.17
2018-03-24T09:20:16.778Z,5.93
2018-03-24T09:22:45.408Z,8.10
2018-03-24T09:25:14.050Z,9.50
2018-03-24T09:27:42.739Z,9.10
2018-03-24T09:30:11.333Z,10.13
2018-03-24T09:32:40.112Z,12.70
2018-03-24T09:35:08.698Z,12.70
2018-03-24T09:37:37.384Z,12.40
2018-03-24T09:40:05.969Z,10.47
2018-03-24T09:42:35.374Z,11.33
2018-03-24T09:45:04.165Z,10.70
2018-03-24T09:47:32.850Z,11.90
2018-03-24T09:50:01.436Z,12.13
2018-03-24T09:52:30.225Z,10.23
2018-03-24T09:54:58.810Z,11.50
2018-03-24T09:57:27.497Z,9.80
2018-03-24T09:59:56.184Z,10.73
2018-03-24T10:02:24.875Z,9.90
2018-03-24T10:04:53.456Z,9.90
2018-03-24T10:07:22.247Z,10.40
2018-03-24T10:09:50.831Z,9.00
2018-03-24T10:12:19.518Z,11.50
2018-03-24T10:14:48.147Z,10.37
2018-03-24T10:17:16.894Z,9.67
2018-03-24T10:19:45.478Z,9.77
2018-03-24T10:22:20.720Z,9.17
2018-03-24T10:24:49.406Z,8.73
2018-03-24T10:27:18.811Z,8.97
2018-03-24T10:29:47.396Z,8.87
2018-03-24T10:32:16.799Z,8.30
2018-03-24T10:34:45.487Z,8.40
2018-03-24T10:37:14.281Z,7.93
2018-03-24T10:39:42.862Z,9.00
2018-03-24T10:42:11.549Z,8.13
2018-03-24T10:44:40.182Z,8.00
2018-03-24T10:47:08.719Z,8.20
2018-03-24T10:49:37.303Z,9.20
2018-03-24T10:52:06.093Z,8.40
2018-03-24T10:54:35.498Z,7.97
2018-03-24T10:57:04.185Z,7.87
2018-03-24T10:59:32.770Z,8.70
2018-03-24T11:02:01.410Z,8.27
2018-03-24T11:04:30.045Z,8.20
2018-03-24T11:06:58.730Z,7.70
2018-03-24T11:09:27.314Z,8.30
2018-03-24T11:11:56.718Z,8.40
2018-03-24T11:14:25.305Z,8.77
2018-03-24T11:16:54.092Z,8.87
2018-03-24T11:19:22.985Z,8.60
2018-03-24T11:21:51.610Z,7.90
2018-03-24T11:24:20.257Z,8.10
2018-03-24T11:26:48.945Z,9.77
2018-03-24T11:29:18.348Z,8.90
2018-03-24T11:31:47.036Z,9.53
2018-03-24T11:34:16.441Z,8.73
2018-03-24T11:36:45.067Z,8.97
2018-03-24T11:39:13.712Z,9.60
2018-03-24T11:41:43.118Z,8.60
2018-03-24T11:44:11.803Z,9.53
2018-03-24T11:46:40.593Z,8.60
2018-03-24T11:49:09.076Z,9.50
2018-03-24T11:51:37.807Z,8.80
2018-03-24T11:54:06.348Z,11.30
2018-03-24T11:56:35.957Z,10.23
2018-03-24T11:59:06.692Z,9.13
2018-03-24T12:01:36.403Z,10.97
2018-03-24T12:04:05.117Z,10.40
2018-03-24T12:06:34.071Z,10.00
2018-03-24T12:09:03.095Z,10.63
2018-03-24T12:11:32.227Z,10.00
2018-03-24T12:14:01.119Z,10.00
2018-03-24T12:16:30.368Z,10.27
2018-03-24T12:18:59.310Z,10.40
2018-03-24T12:21:28.596Z,8.73
2018-03-24T12:23:58.498Z,10.43
2018-03-24T12:26:28.611Z,10.97
2018-03-24T12:28:57.672Z,9.70
2018-03-24T12:31:26.940Z,9.23
2018-03-24T12:33:56.011Z,9.90
2018-03-24T12:36:25.210Z,7.70
2018-03-24T12:38:54.203Z,8.57
2018-03-24T12:41:23.101Z,8.10
2018-03-24T12:43:52.195Z,7.97
2018-03-24T12:46:22.272Z,7.90
2018-03-24T12:48:51.923Z,9.47
2018-03-24T12:51:21.865Z,9.37
2018-03-24T12:53:50.935Z,8.17
2018-03-24T12:56:20.167Z,7.53
2018-03-24T12:58:49.261Z,8.73
2018-03-24T13:01:18.465Z,9.03
2018-03-24T13:03:47.557Z,8.47
2018-03-24T13:06:16.847Z,8.70
2018-03-24T13:08:46.802Z,8.50
2018-03-24T13:11:16.070Z,9.53
2018-03-24T13:13:45.139Z,8.60
2018-03-24T13:16:15.095Z,7.80
2018-03-24T13:18:44.059Z,7.90
2018-03-24T13:21:13.996Z,7.83
2018-03-24T13:23:43.171Z,7.80
2018-03-24T13:26:12.471Z,7.90
2018-03-24T13:28:43.107Z,7.83
2018-03-24T13:31:13.446Z,8.57
2018-03-24T13:33:43.520Z,7.20
2018-03-24T13:36:12.847Z,7.20
2018-03-24T13:38:42.850Z,7.33
2018-03-24T13:41:16.393Z,6.93
2018-03-24T13:43:46.833Z,7.00
2018-03-24T13:46:17.713Z,6.80
2018-03-24T13:48:48.117Z,7.10
2018-03-24T13:51:20.737Z,8.30
2018-03-24T13:54:06.847Z,6.63
2018-03-24T13:56:37.677Z,7.17
2018-03-24T13:59:06.699Z,7.40
2018-03-24T14:01:39.029Z,7.27
2018-03-24T14:04:10.117Z,7.37
2018-03-24T14:06:39.395Z,6.83
2018-03-24T14:09:16.705Z,7.07
2018-03-24T14:11:47.679Z,8.40
2018-03-24T14:14:16.814Z,7.63
2018-03-24T14:16:46.013Z,7.93
2018-03-24T14:19:15.115Z,6.93
2018-03-24T14:21:44.426Z,7.17
2018-03-24T14:24:14.431Z,8.33
2018-03-24T14:26:43.663Z,7.80
2018-03-24T14:29:12.794Z,8.20
2018-03-24T14:31:42.043Z,8.10
2018-03-24T14:34:11.843Z,9.13
2018-03-24T14:36:41.175Z,9.03
2018-03-24T14:39:10.354Z,8.87
2018-03-24T14:41:40.429Z,9.47
2018-03-24T14:44:09.563Z,8.70
2018-03-24T14:46:38.791Z,9.47
2018-03-24T14:49:07.793Z,10.77
2018-03-24T14:51:37.062Z,10.40
2018-03-24T14:54:06.162Z,10.47
2018-03-24T14:56:36.239Z,8.90
2018-03-24T14:59:05.310Z,9.10
2018-03-24T15:01:34.579Z,8.30
2018-03-24T15:04:03.479Z,8.33
2018-03-24T15:06:33.690Z,8.40
2018-03-24T15:09:03.303Z,8.97
2018-03-24T15:11:33.315Z,9.37
2018-03-24T15:14:02.682Z,9.57
2018-03-24T15:16:32.107Z,8.77
2018-03-24T15:19:01.903Z,9.37
2018-03-24T15:21:31.796Z,8.60
2018-03-24T15:24:00.594Z,10.00
2018-03-24T15:26:30.603Z,9.97
2018-03-24T15:29:11.232Z,9.27
2018-03-24T15:31:52.397Z,11.33
2018-03-24T15:34:33.474Z,9.67
2018-03-24T15:37:02.403Z,7.80
2018-03-24T15:39:31.830Z,9.23
2018-03-24T15:42:01.930Z,8.60
2018-03-24T15:44:31.492Z,8.97
2018-03-24T15:47:01.457Z,9.80
2018-03-24T15:49:31.587Z,9.40
2018-03-24T15:52:00.670Z,8.53
2018-03-24T15:54:29.632Z,8.97
2018-03-24T15:56:58.739Z,8.70
2018-03-24T15:59:27.723Z,8.60
2018-03-24T16:01:56.804Z,9.43
2018-03-24T16:04:26.683Z,8.97
2018-03-24T16:06:55.845Z,9.07
2018-03-24T16:09:25.543Z,7.90
2018-03-24T16:11:54.720Z,9.27
2018-03-24T16:14:24.575Z,8.73
2018-03-24T16:16:53.771Z,9.13
2018-03-24T16:19:22.687Z,8.30
2018-03-24T16:21:51.963Z,7.30
2018-03-24T16:24:20.790Z,8.00
2018-03-24T16:26:50.191Z,8.10
2018-03-24T16:29:19.239Z,8.57
2018-03-24T16:31:48.287Z,7.30
2018-03-24T16:34:18.262Z,10.13
2018-03-24T16:36:47.466Z,9.37
2018-03-24T16:39:16.509Z,8.30
2018-03-24T16:41:45.662Z,9.13
2018-03-24T16:44:14.661Z,10.03
2018-03-24T16:46:43.959Z,8.20
2018-03-24T16:49:12.951Z,8.00
2018-03-24T16:51:42.118Z,9.50
2018-03-24T16:54:12.066Z,8.27
2018-03-24T16:56:41.371Z,9.07
2018-03-24T16:59:11.180Z,8.17
2018-03-24T17:01:40.586Z,7.93
2018-03-24T17:04:09.715Z,8.37
2018-03-24T17:06:38.987Z,8.10
2018-03-24T17:09:08.863Z,9.13
2018-03-24T17:11:38.023Z,8.60
2018-03-24T17:14:07.123Z,9.47
2018-03-24T17:16:36.399Z,7.40
2018-03-24T17:19:05.528Z,5.93
2018-03-24T17:21:34.624Z,7.40
2018-03-24T17:24:03.623Z,7.10
2018-03-24T17:26:32.722Z,7.40
2018-03-24T17:29:01.868Z,7.57
2018-03-24T17:31:30.944Z,7.77
2018-03-24T17:33:59.858Z,7.20
2018-03-24T17:36:28.931Z,7.90
2018-03-24T17:38:57.894Z,7.67
2018-03-24T17:41:27.066Z,7.47
2018-03-24T17:43:56.899Z,8.70
2018-03-24T17:46:26.171Z,8.00
2018-03-24T17:48:55.303Z,9.30
2018-03-24T17:51:24.507Z,9.53
2018-03-24T17:53:53.486Z,8.53
2018-03-24T17:56:22.518Z,8.30
2018-03-24T17:58:51.487Z,7.93
2018-03-24T18:01:20.619Z,9.07
2018-03-24T18:03:50.495Z,7.50
2018-03-24T18:06:19.771Z,12.03
2018-03-24T18:08:49.743Z,11.43
2018-03-24T18:11:19.010Z,9.73
2018-03-24T18:13:48.686Z,9.93
2018-03-24T18:16:17.832Z,7.47
2018-03-24T18:18:46.774Z,6.23
2018-03-24T18:21:15.887Z,7.47
2018-03-24T18:23:44.766Z,7.80
2018-03-24T18:26:14.703Z,7.40
2018-03-24T18:28:43.794Z,8.50
2018-03-24T18:31:14.223Z,8.80
2018-03-24T18:33:43.319Z,10.57
2018-03-24T18:36:12.515Z,7.37
2018-03-24T18:38:41.699Z,7.93
2018-03-24T18:41:10.775Z,7.23
2018-03-24T18:43:40.519Z,7.20
2018-03-24T18:46:09.827Z,7.87
2018-03-24T18:48:38.820Z,7.60
2018-03-24T18:51:08.054Z,8.20
2018-03-24T18:53:37.047Z,8.40
2018-03-24T18:56:06.175Z,8.53
2018-03-24T18:58:35.139Z,6.93
2018-03-24T19:01:04.158Z,8.33
2018-03-24T19:03:34.043Z,8.90
2018-03-24T19:06:03.035Z,7.30
2018-03-24T19:08:32.856Z,8.30
2018-03-24T19:11:02.627Z,8.70
2018-03-24T19:13:31.760Z,9.47
2018-03-24T19:16:00.831Z,8.50
2018-03-24T19:18:29.927Z,8.40
2018-03-24T19:20:59.164Z,8.23
2018-03-24T19:23:28.155Z,8.50
2018-03-24T19:25:57.283Z,8.20
2018-03-24T19:28:26.214Z,8.10
2018-03-24T19:30:55.375Z,8.73
2018-03-24T19:33:24.443Z,8.67
2018-03-24T19:35:53.644Z,8.00
2018-03-24T19:38:22.635Z,9.00
2018-03-24T19:40:51.762Z,8.30
2018-03-24T19:43:20.722Z,7.37
2018-03-24T19:45:49.927Z,7.20
2018-03-24T19:48:18.919Z,7.10
2018-03-24T19:50:48.055Z,7.87
2018-03-24T19:53:17.926Z,8.57
2018-03-24T19:55:47.207Z,10.00
2018-03-24T19:58:17.000Z,7.80
2018-03-24T20:00:46.315Z,8.40
2018-03-24T20:03:15.543Z,8.43
2018-03-24T20:05:44.715Z,7.47
2018-03-24T20:08:13.811Z,8.07
2018-03-24T20:10:42.938Z,7.23
2018-03-24T20:13:11.940Z,6.33
2018-03-24T20:15:41.167Z,7.17
2018-03-24T20:18:10.131Z,7.40
2018-03-24T20:20:39.263Z,8.47
2018-03-24T20:23:08.175Z,7.20
2018-03-24T20:25:37.243Z,7.23
2018-03-24T20:28:06.212Z,6.87
2018-03-24T20:30:35.375Z,8.57
2018-03-24T20:33:04.305Z,7.53
2018-03-24T20:35:33.567Z,7.37
2018-03-24T20:38:02.451Z,7.23
2018-03-24T20:40:31.518Z,8.47
2018-03-24T20:43:00.495Z,7.50
2018-03-24T20:45:29.615Z,7.43
2018-03-24T20:47:58.574Z,8.10
2018-03-24T20:50:27.702Z,7.50
2018-03-24T20:52:56.536Z,8.17
2018-03-24T20:55:25.763Z,7.70
2018-03-24T20:57:54.731Z,9.30
2018-03-24T21:00:24.771Z,8.57
2018-03-24T21:02:53.867Z,7.07
2018-03-24T21:05:23.042Z,8.10
2018-03-24T21:07:52.058Z,8.33
2018-03-24T21:10:21.471Z,7.93
2018-03-24T21:12:50.376Z,8.90
2018-03-24T21:15:19.487Z,7.60
2018-03-24T21:17:48.454Z,7.87
2018-03-24T21:20:17.507Z,7.83
2018-03-24T21:22:46.443Z,7.40
2018-03-24T21:25:15.470Z,7.43
2018-03-24T21:27:44.435Z,8.60
2018-03-24T21:30:13.531Z,10.10
2018-03-24T21:32:42.429Z,8.63
2018-03-24T21:35:11.551Z,7.90
2018-03-24T21:37:41.530Z,8.90
2018-03-24T21:40:10.711Z,8.40
2018-03-24T21:42:39.798Z,7.70
2018-03-24T21:45:09.017Z,7.90
2018-03-24T21:47:38.979Z,10.13
2018-03-24T21:50:08.248Z,8.00
2018-03-24T21:52:37.343Z,8.00
2018-03-24T21:55:06.339Z,9.17
2018-03-24T21:57:35.411Z,9.10
2018-03-24T22:00:05.626Z,10.10
2018-03-24T22:02:35.431Z,10.87
2018-03-24T22:05:04.503Z,9.50
2018-03-24T22:07:34.279Z,11.20
2018-03-24T22:10:03.452Z,10.50
2018-03-24T22:12:33.456Z,10.23
2018-03-24T22:15:02.872Z,10.70
2018-03-24T22:17:31.999Z,12.30
2018-03-24T22:20:01.275Z,11.47
2018-03-24T22:22:31.277Z,10.70
2018-03-24T22:25:00.591Z,10.83
2018-03-24T22:27:29.714Z,11.77
2018-03-24T22:29:58.795Z,9.90
2018-03-24T22:32:27.987Z,11.47
2018-03-24T22:34:57.220Z,8.80
2018-03-24T22:37:26.120Z,9.10
2018-03-24T22:39:55.380Z,10.20
2018-03-24T22:42:24.307Z,8.90
2018-03-24T22:44:53.433Z,10.70
2018-03-24T22:47:22.404Z,8.67
2018-03-24T22:49:51.527Z,8.70
2018-03-24T22:52:20.487Z,10.23
2018-03-24T22:54:49.620Z,8.60
2018-03-24T22:57:18.578Z,8.20
2018-03-24T22:59:47.708Z,10.83
2018-03-24T23:02:16.726Z,9.57
2018-03-24T23:04:45.831Z,10.43
2018-03-24T23:07:14.715Z,11.23
2018-03-24T23:09:43.787Z,10.10
2018-03-24T23:12:12.756Z,9.27
2018-03-24T23:14:41.848Z,9.50
2018-03-24T23:17:10.738Z,9.90
2018-03-24T23:19:40.562Z,9.60
2018-03-24T23:22:09.531Z,10.10
2018-03-24T23:24:39.466Z,8.00
2018-03-24T23:27:08.350Z,8.90
2018-03-24T23:29:37.549Z,8.60
2018-03-24T23:32:06.443Z,9.30
2018-03-24T23:34:35.570Z,11.50
2018-03-24T23:37:04.494Z,8.40
2018-03-24T23:39:33.590Z,8.57
2018-03-24T23:42:02.678Z,8.93
2018-03-24T23:44:31.793Z,9.27
2018-03-24T23:47:00.674Z,8.40
2018-03-24T23:49:29.742Z,10.20
2018-03-24T23:51:58.662Z,9.00
2018-03-24T23:54:27.762Z,8.63
2018-03-24T23:56:58.134Z,8.77
2018-03-24T23:59:27.261Z,8.33
